Time;durP1;ratioP1;P1;durP2;ratioP2;P2;SDS_P1;SDS_P2;PMS_P1;PMS_P2;Temp;Humidity;BMP_temperature;BMP_pressure;BME280_temperature;BME280_humidity;BME280_pressure;Samples;Min_cycle;Max_cycle;Signal;HPM_P1;HPM_P2
2021/06/12 00:01:51;;;;;;;45.97;14.60;;;;;;;;;;5103143;28;20038;-65
2021/06/12 00:04:16;;;;;;;66.82;17.50;;;;;;;;;;5111634;28;20057;-65
2021/06/12 00:06:41;;;;;;;49.45;14.65;;;;;;;;;;5105668;28;20510;-64
2021/06/12 00:09:07;;;;;;;45.15;13.98;;;;;;;;;;5107045;28;20380;-64
2021/06/12 00:11:32;;;;;;;38.15;13.32;;;;;;;;;;5105584;28;20184;-65
2021/06/12 00:13:57;;;;;;;46.33;14.20;;;;;;;;;;5103172;28;20515;-65
2021/06/12 00:16:23;;;;;;;41.40;13.90;;;;;;;;;;5102061;28;20104;-65
2021/06/12 00:18:48;;;;;;;46.30;14.27;;;;;;;;;;5081104;28;20078;-65
2021/06/12 00:21:13;;;;;;;52.25;14.23;;;;;;;;;;5113129;28;20023;-65
2021/06/12 00:23:39;;;;;;;52.30;14.25;;;;;;;;;;5107604;28;20024;-65
2021/06/12 00:26:04;;;;;;;38.83;13.07;;;;;;;;;;5105569;28;20539;-65
2021/06/12 00:28:29;;;;;;;49.75;14.38;;;;;;;;;;5103482;28;20038;-65
2021/06/12 00:30:55;;;;;;;54.83;15.18;;;;;;;;;;5112893;28;20108;-65
2021/06/12 00:33:21;;;;;;;57.35;15.27;;;;;;;;;;5099229;28;20107;-65
2021/06/12 00:35:46;;;;;;;38.47;12.95;;;;;;;;;;5111200;28;20073;-64
2021/06/12 00:38:12;;;;;;;43.47;14.25;;;;;;;;;;5114427;28;20055;-65
2021/06/12 00:40:38;;;;;;;45.75;13.77;;;;;;;;;;5098313;28;20020;-64
2021/06/12 00:43:04;;;;;;;52.88;14.38;;;;;;;;;;5108836;28;20039;-65
2021/06/12 00:45:30;;;;;;;46.55;14.13;;;;;;;;;;5098970;28;20023;-65
2021/06/12 00:47:56;;;;;;;47.20;13.45;;;;;;;;;;5114305;28;20012;-65
2021/06/12 00:50:22;;;;;;;52.17;14.15;;;;;;;;;;5100499;28;20496;-65
2021/06/12 00:52:48;;;;;;;52.97;14.57;;;;;;;;;;5110631;28;20081;-65
2021/06/12 00:55:15;;;;;;;58.55;15.52;;;;;;;;;;5098253;28;20020;-65
2021/06/12 00:57:41;;;;;;;47.60;15.18;;;;;;;;;;5105911;28;20605;-65
2021/06/12 01:00:08;;;;;;;48.92;14.05;;;;;;;;;;5105715;28;20069;-65
2021/06/12 01:02:34;;;;;;;43.17;14.25;;;;;;;;;;5098722;28;20027;-65
2021/06/12 01:04:59;;;;;;;39.25;14.40;;;;;;;;;;5110780;28;20535;-65
2021/06/12 01:07:25;;;;;;;46.75;14.95;;;;;;;;;;5099739;28;20149;-65
2021/06/12 01:09:50;;;;;;;42.50;13.80;;;;;;;;;;5104711;28;20036;-65
2021/06/12 01:12:25;;;;;;;54.45;14.23;;;;;;;;;;5101077;28;20055;-65
2021/06/12 01:14:53;;;;;;;56.75;15.50;;;;;;;;;;5110450;28;20388;-65
2021/06/12 01:17:27;;;;;;;44.42;12.63;;;;;;;;;;5109084;28;20055;-65
2021/06/12 01:20:01;;;;;;;52.67;15.57;;;;;;;;;;5103439;28;20019;-65
2021/06/12 01:22:31;;;;;;;52.42;14.38;;;;;;;;;;5099144;28;20507;-65
2021/06/12 01:24:56;;;;;;;58.72;15.90;;;;;;;;;;5110277;28;20123;-65
2021/06/12 01:27:40;;;;;;;54.85;15.65;;;;;;;;;;5098715;28;20438;-65
2021/06/12 01:30:15;;;;;;;35.25;13.85;;;;;;;;;;5102197;28;20032;-65
2021/06/12 01:33:01;;;;;;;58.47;15.52;;;;;;;;;;5109808;28;20122;-65
2021/06/12 01:35:29;;;;;;;53.22;15.38;;;;;;;;;;5098932;28;20063;-65
2021/06/12 01:37:55;;;;;;;53.67;14.27;;;;;;;;;;5103709;28;20028;-65
2021/06/12 01:40:22;;;;;;;51.40;15.10;;;;;;;;;;5111249;28;20341;-65
2021/06/12 01:42:48;;;;;;;47.20;14.73;;;;;;;;;;5113303;28;20027;-65
2021/06/12 01:45:14;;;;;;;42.80;14.82;;;;;;;;;;5113524;28;20031;-65
2021/06/12 01:47:39;;;;;;;47.88;15.18;;;;;;;;;;5113059;28;20522;-65
2021/06/12 01:50:06;;;;;;;52.40;14.55;;;;;;;;;;5113374;28;20119;-65
2021/06/12 01:52:32;;;;;;;40.08;14.10;;;;;;;;;;5113168;28;20032;-65
2021/06/12 01:54:58;;;;;;;40.83;14.15;;;;;;;;;;5113437;28;20020;-65
2021/06/12 01:57:24;;;;;;;50.08;14.90;;;;;;;;;;5113285;28;20032;-65
2021/06/12 01:59:50;;;;;;;56.70;16.73;;;;;;;;;;5112757;28;20532;-65
2021/06/12 02:02:16;;;;;;;43.83;14.40;;;;;;;;;;5112807;28;20027;-65
2021/06/12 02:04:41;;;;;;;60.50;16.67;;;;;;;;;;5113258;28;20384;-65
2021/06/12 02:07:07;;;;;;;60.80;16.00;;;;;;;;;;5113295;28;20586;-65
2021/06/12 02:09:34;;;;;;;43.63;14.70;;;;;;;;;;5112830;28;20110;-65
2021/06/12 02:12:00;;;;;;;55.10;16.60;;;;;;;;;;5093002;28;20028;-65
2021/06/12 02:14:26;;;;;;;41.65;15.18;;;;;;;;;;5110477;28;20476;-65
2021/06/12 02:16:51;;;;;;;46.15;15.85;;;;;;;;;;5112966;28;20035;-65
2021/06/12 02:19:17;;;;;;;51.00;15.82;;;;;;;;;;5113020;28;20031;-65
2021/06/12 02:21:43;;;;;;;37.47;15.57;;;;;;;;;;5112790;28;20032;-65
2021/06/12 02:24:09;;;;;;;48.17;15.52;;;;;;;;;;5113248;28;20106;-65
2021/06/12 02:26:37;;;;;;;62.47;16.50;;;;;;;;;;5113170;28;20028;-65
2021/06/12 02:29:03;;;;;;;62.15;16.83;;;;;;;;;;5113091;28;20062;-65
2021/06/12 02:31:31;;;;;;;54.55;15.68;;;;;;;;;;5113080;28;20047;-65
2021/06/12 02:33:57;;;;;;;50.22;14.90;;;;;;;;;;5112791;28;20072;-65
2021/06/12 02:36:22;;;;;;;51.85;15.68;;;;;;;;;;5112571;28;20036;-65
2021/06/12 02:38:47;;;;;;;44.85;15.02;;;;;;;;;;5114398;28;20024;-65
2021/06/12 02:41:13;;;;;;;46.65;15.20;;;;;;;;;;5116829;28;20035;-65
2021/06/12 02:43:38;;;;;;;60.75;17.58;;;;;;;;;;5116965;28;20084;-65
2021/06/12 02:46:05;;;;;;;52.33;16.35;;;;;;;;;;5117071;28;20019;-65
2021/06/12 02:48:32;;;;;;;46.15;15.50;;;;;;;;;;5116607;28;20395;-65
2021/06/12 02:50:58;;;;;;;47.53;15.50;;;;;;;;;;5116447;28;20035;-65
2021/06/12 02:53:28;;;;;;;74.32;17.63;;;;;;;;;;5117363;28;20026;-65
2021/06/12 02:55:55;;;;;;;54.33;16.02;;;;;;;;;;5116538;28;20115;-65
2021/06/12 02:58:21;;;;;;;49.42;16.80;;;;;;;;;;5116785;28;20032;-65
2021/06/12 03:00:47;;;;;;;54.42;16.95;;;;;;;;;;5115181;28;20023;-65
2021/06/12 03:03:13;;;;;;;53.00;16.77;;;;;;;;;;5116906;28;20079;-65
2021/06/12 03:05:41;;;;;;;45.10;17.48;;;;;;;;;;5116115;28;20078;-64
2021/06/12 03:08:07;;;;;;;50.13;15.60;;;;;;;;;;5115995;28;20421;-65
2021/06/12 03:10:33;;;;;;;53.67;16.40;;;;;;;;;;5116359;28;20096;-65
2021/06/12 03:13:01;;;;;;;48.90;16.67;;;;;;;;;;5116198;28;20037;-65
2021/06/12 03:15:27;;;;;;;48.85;15.88;;;;;;;;;;5116214;28;20065;-65
2021/06/12 03:17:53;;;;;;;62.70;16.30;;;;;;;;;;5116365;28;20023;-65
2021/06/12 03:20:19;;;;;;;77.60;17.92;;;;;;;;;;5116175;28;20103;-65
2021/06/12 03:22:46;;;;;;;45.83;16.98;;;;;;;;;;5115733;28;20122;-65
2021/06/12 03:25:13;;;;;;;55.67;17.70;;;;;;;;;;5116121;28;20046;-65
2021/06/12 03:27:39;;;;;;;49.10;15.93;;;;;;;;;;5115995;28;20491;-65
2021/06/12 03:30:04;;;;;;;55.33;16.83;;;;;;;;;;5115687;28;20045;-65
2021/06/12 03:32:30;;;;;;;47.60;15.65;;;;;;;;;;5115918;28;20098;-67
2021/06/12 03:34:56;;;;;;;50.55;15.80;;;;;;;;;;5115692;28;20028;-66
2021/06/12 03:37:21;;;;;;;48.75;15.95;;;;;;;;;;5115886;28;20028;-67
2021/06/12 03:39:47;;;;;;;51.50;16.90;;;;;;;;;;5115221;28;20026;-68
2021/06/12 03:42:13;;;;;;;67.57;17.35;;;;;;;;;;5115673;28;20036;-68
2021/06/12 03:44:38;;;;;;;64.63;18.50;;;;;;;;;;5113983;28;20471;-65
2021/06/12 03:47:08;;;;;;;43.42;15.85;;;;;;;;;;5114832;28;20065;-65
2021/06/12 03:49:33;;;;;;;79.18;19.13;;;;;;;;;;5115606;28;20102;-66
2021/06/12 03:51:59;;;;;;;52.47;16.13;;;;;;;;;;5115382;28;20103;-66
2021/06/12 03:54:25;;;;;;;45.67;15.93;;;;;;;;;;5115668;28;20031;-66
2021/06/12 03:56:50;;;;;;;77.22;18.40;;;;;;;;;;5115299;28;20437;-67
2021/06/12 03:59:16;;;;;;;60.97;16.63;;;;;;;;;;5115481;28;20019;-66
2021/06/12 04:01:42;;;;;;;60.35;16.63;;;;;;;;;;5115320;28;20039;-66
2021/06/12 04:04:07;;;;;;;72.35;17.48;;;;;;;;;;5115354;28;20040;-67
2021/06/12 04:06:32;;;;;;;61.83;17.50;;;;;;;;;;5115076;28;20027;-67
2021/06/12 04:08:58;;;;;;;74.15;18.10;;;;;;;;;;5114691;28;20031;-67
2021/06/12 04:11:23;;;;;;;54.13;16.00;;;;;;;;;;5114601;28;20052;-67
2021/06/12 04:13:48;;;;;;;65.25;17.38;;;;;;;;;;5115426;28;20116;-66
2021/06/12 04:16:14;;;;;;;50.95;16.90;;;;;;;;;;5115046;28;20031;-67
2021/06/12 04:18:39;;;;;;;48.65;15.80;;;;;;;;;;5115191;28;20480;-66
2021/06/12 04:21:05;;;;;;;52.50;16.88;;;;;;;;;;5113756;28;20077;-67
2021/06/12 04:23:30;;;;;;;59.83;17.35;;;;;;;;;;5114317;28;20411;-67
2021/06/12 04:25:56;;;;;;;66.57;18.45;;;;;;;;;;5114921;28;20032;-66
2021/06/12 04:28:21;;;;;;;41.55;16.45;;;;;;;;;;5115139;28;20023;-66
2021/06/12 04:30:46;;;;;;;89.18;19.85;;;;;;;;;;5114598;28;20541;-66
2021/06/12 04:33:12;;;;;;;62.72;15.85;;;;;;;;;;5114735;28;20027;-66
2021/06/12 04:35:37;;;;;;;45.90;16.77;;;;;;;;;;5114929;28;20024;-66
2021/06/12 04:38:03;;;;;;;66.45;16.70;;;;;;;;;;5114618;28;20383;-65
2021/06/12 04:40:29;;;;;;;50.92;15.15;;;;;;;;;;5114658;28;20032;-66
2021/06/12 04:42:54;;;;;;;59.60;16.70;;;;;;;;;;5114812;28;20028;-65
2021/06/12 04:45:20;;;;;;;51.35;16.20;;;;;;;;;;5114509;28;20050;-66
2021/06/12 04:47:45;;;;;;;74.47;17.48;;;;;;;;;;5113485;28;20027;-66
2021/06/12 04:50:11;;;;;;;49.17;14.77;;;;;;;;;;5114489;28;20482;-65
2021/06/12 04:52:37;;;;;;;55.00;16.90;;;;;;;;;;5114295;28;20116;-66
2021/06/12 04:55:03;;;;;;;50.95;15.00;;;;;;;;;;5114642;28;20471;-66
2021/06/12 04:57:28;;;;;;;50.40;13.65;;;;;;;;;;5113884;28;20015;-67
2021/06/12 04:59:53;;;;;;;43.22;13.90;;;;;;;;;;5113944;28;20379;-66
2021/06/12 05:02:18;;;;;;;70.38;15.88;;;;;;;;;;5113361;28;20119;-67
2021/06/12 05:04:44;;;;;;;57.97;15.50;;;;;;;;;;5113966;28;20352;-67
2021/06/12 05:07:09;;;;;;;58.13;14.93;;;;;;;;;;5106603;28;20103;-67
2021/06/12 05:09:34;;;;;;;59.08;14.85;;;;;;;;;;5114064;28;20484;-67
2021/06/12 05:12:00;;;;;;;48.60;13.95;;;;;;;;;;5113777;28;20020;-67
2021/06/12 05:14:25;;;;;;;50.72;12.32;;;;;;;;;;5114440;28;20063;-67
2021/06/12 05:16:50;;;;;;;35.15;12.57;;;;;;;;;;5113527;28;20088;-67
2021/06/12 05:19:16;;;;;;;28.95;10.73;;;;;;;;;;5114234;28;20065;-67
2021/06/12 05:21:44;;;;;;;31.38;11.05;;;;;;;;;;5113748;28;20023;-67
2021/06/12 05:24:09;;;;;;;75.30;13.63;;;;;;;;;;5113916;28;20048;-67
2021/06/12 05:26:35;;;;;;;29.23;10.25;;;;;;;;;;5113781;28;20027;-67
2021/06/12 05:29:00;;;;;;;126.22;17.27;;;;;;;;;;5113992;28;20024;-67
2021/06/12 05:31:25;;;;;;;93.13;16.42;;;;;;;;;;5099327;28;20024;-67
2021/06/12 05:33:50;;;;;;;73.28;13.43;;;;;;;;;;5093607;28;20052;-66
2021/06/12 05:36:16;;;;;;;318.65;28.63;;;;;;;;;;5111016;28;20660;-67
2021/06/12 05:38:42;;;;;;;56.90;11.20;;;;;;;;;;5098218;28;20035;-67
2021/06/12 05:41:07;;;;;;;90.63;14.23;;;;;;;;;;5104312;28;20040;-67
2021/06/12 05:43:33;;;;;;;19.02;8.05;;;;;;;;;;5090395;28;20040;-67
2021/06/12 05:45:58;;;;;;;44.00;10.20;;;;;;;;;;5091622;28;20056;-67
2021/06/12 05:48:26;;;;;;;14.70;7.25;;;;;;;;;;5109924;28;20028;-66
2021/06/12 05:50:52;;;;;;;12.05;5.72;;;;;;;;;;5113454;28;20082;-67
2021/06/12 05:53:17;;;;;;;15.88;6.85;;;;;;;;;;5113706;28;20035;-68
2021/06/12 05:55:43;;;;;;;5.32;4.18;;;;;;;;;;5113392;28;20015;-67
2021/06/12 05:58:08;;;;;;;6.50;4.18;;;;;;;;;;5113115;28;20031;-69
2021/06/12 06:00:34;;;;;;;9.38;3.78;;;;;;;;;;5112786;28;20031;-68
2021/06/12 06:02:59;;;;;;;8.05;4.10;;;;;;;;;;5112899;28;20032;-68
2021/06/12 06:05:25;;;;;;;5.15;3.53;;;;;;;;;;5113450;28;20024;-68
2021/06/12 06:07:50;;;;;;;5.68;3.47;;;;;;;;;;5113317;28;20036;-68
2021/06/12 06:10:16;;;;;;;5.75;3.25;;;;;;;;;;5113340;28;20468;-68
2021/06/12 06:12:41;;;;;;;4.35;3.17;;;;;;;;;;5113322;28;20051;-68
2021/06/12 06:15:09;;;;;;;6.18;3.33;;;;;;;;;;5117141;28;20039;-68
2021/06/12 06:17:34;;;;;;;6.28;3.50;;;;;;;;;;5117165;28;20076;-68
2021/06/12 06:19:59;;;;;;;5.78;3.70;;;;;;;;;;5117392;28;20020;-68
2021/06/12 06:22:24;;;;;;;6.35;3.20;;;;;;;;;;5116567;28;20049;-68
2021/06/12 06:24:50;;;;;;;6.45;3.28;;;;;;;;;;5098902;28;20460;-68
2021/06/12 06:27:15;;;;;;;6.15;2.90;;;;;;;;;;5117343;28;20501;-68
2021/06/12 06:29:40;;;;;;;3.97;2.65;;;;;;;;;;5117379;28;20023;-69
2021/06/12 06:32:06;;;;;;;6.30;3.08;;;;;;;;;;5116764;28;20023;-67
2021/06/12 06:34:31;;;;;;;5.72;3.03;;;;;;;;;;5117345;28;20110;-68
2021/06/12 06:36:56;;;;;;;5.18;3.15;;;;;;;;;;5117118;28;20103;-69
2021/06/12 06:39:22;;;;;;;6.07;2.72;;;;;;;;;;5116996;28;20399;-69
2021/06/12 06:41:47;;;;;;;4.30;2.70;;;;;;;;;;5116576;28;20437;-68
2021/06/12 06:44:12;;;;;;;6.45;2.97;;;;;;;;;;5116922;28;20035;-69
2021/06/12 06:46:38;;;;;;;6.80;3.55;;;;;;;;;;5116722;28;20102;-69
2021/06/12 06:49:03;;;;;;;7.82;3.10;;;;;;;;;;5117173;28;20449;-69
2021/06/12 06:51:28;;;;;;;6.55;2.72;;;;;;;;;;5115915;28;20030;-68
2021/06/12 06:53:53;;;;;;;3.80;2.60;;;;;;;;;;5117367;28;20444;-70
2021/06/12 06:56:19;;;;;;;7.97;3.30;;;;;;;;;;5107242;28;20038;-69
2021/06/12 06:58:44;;;;;;;6.95;2.92;;;;;;;;;;5108966;28;20023;-66
2021/06/12 07:01:09;;;;;;;6.18;2.95;;;;;;;;;;5109758;28;20027;-68
2021/06/12 07:03:35;;;;;;;9.27;3.53;;;;;;;;;;5108017;28;20032;-67
2021/06/12 07:06:01;;;;;;;7.78;3.17;;;;;;;;;;5107418;28;20035;-67
2021/06/12 07:08:26;;;;;;;6.38;2.70;;;;;;;;;;5106827;28;20468;-67
2021/06/12 07:10:51;;;;;;;7.05;2.88;;;;;;;;;;5109371;28;20056;-66
2021/06/12 07:13:20;;;;;;;9.05;2.78;;;;;;;;;;5115935;28;20035;-67
2021/06/12 07:15:45;;;;;;;8.20;2.90;;;;;;;;;;5103839;28;20375;-67
2021/06/12 07:18:11;;;;;;;8.18;2.70;;;;;;;;;;5104737;28;20038;-66
2021/06/12 07:20:36;;;;;;;8.23;2.60;;;;;;;;;;5108347;28;20027;-66
2021/06/12 07:23:01;;;;;;;7.47;2.93;;;;;;;;;;5106105;28;20038;-66
2021/06/12 07:25:27;;;;;;;6.50;2.97;;;;;;;;;;5114880;28;20755;-67
2021/06/12 07:27:52;;;;;;;8.45;2.80;;;;;;;;;;5115762;28;20039;-66
2021/06/12 07:30:18;;;;;;;8.23;2.53;;;;;;;;;;5116365;28;20023;-66
2021/06/12 07:32:43;;;;;;;9.90;3.08;;;;;;;;;;5115710;28;20264;-66
2021/06/12 07:35:08;;;;;;;7.07;2.53;;;;;;;;;;5115926;28;20077;-66
2021/06/12 07:37:34;;;;;;;6.93;2.80;;;;;;;;;;5116054;28;20450;-67
2021/06/12 07:39:59;;;;;;;5.63;2.65;;;;;;;;;;5116416;28;20024;-66
2021/06/12 07:42:24;;;;;;;6.00;2.30;;;;;;;;;;5109889;28;20464;-67
2021/06/12 07:44:50;;;;;;;6.60;2.60;;;;;;;;;;5095639;28;20036;-66
2021/06/12 07:47:15;;;;;;;6.03;2.95;;;;;;;;;;5095413;28;20463;-67
2021/06/12 07:49:40;;;;;;;7.57;2.40;;;;;;;;;;5109822;28;20379;-66
2021/06/12 07:52:06;;;;;;;7.78;2.58;;;;;;;;;;5107822;28;20297;-67
2021/06/12 07:54:31;;;;;;;9.40;3.08;;;;;;;;;;5114689;28;20082;-67
2021/06/12 07:56:56;;;;;;;7.88;2.72;;;;;;;;;;5112898;28;20129;-68
2021/06/12 07:59:21;;;;;;;9.13;2.85;;;;;;;;;;5104299;28;20508;-66
2021/06/12 08:01:47;;;;;;;7.43;2.25;;;;;;;;;;5088018;28;20024;-69
2021/06/12 08:04:12;;;;;;;7.20;2.08;;;;;;;;;;5095777;28;20527;-68
2021/06/12 08:06:38;;;;;;;6.35;2.40;;;;;;;;;;5107961;28;20080;-67
2021/06/12 08:09:03;;;;;;;5.78;2.40;;;;;;;;;;5107955;28;20031;-68
2021/06/12 08:11:28;;;;;;;8.23;2.75;;;;;;;;;;5102994;28;20056;-69
2021/06/12 08:13:54;;;;;;;7.90;2.70;;;;;;;;;;5114250;28;20432;-69
2021/06/12 08:16:19;;;;;;;6.30;2.55;;;;;;;;;;5112564;28;20302;-69
2021/06/12 08:18:44;;;;;;;8.50;2.15;;;;;;;;;;5115161;28;20047;-70
2021/06/12 08:21:10;;;;;;;7.73;2.53;;;;;;;;;;5115131;28;20039;-70
2021/06/12 08:23:36;;;;;;;7.45;2.10;;;;;;;;;;5115199;28;20248;-69
2021/06/12 08:26:01;;;;;;;6.45;2.38;;;;;;;;;;5115280;28;20031;-70
2021/06/12 08:28:26;;;;;;;7.57;2.47;;;;;;;;;;5115275;28;20166;-68
2021/06/12 08:30:51;;;;;;;6.50;2.45;;;;;;;;;;5114832;28;20608;-68
2021/06/12 08:33:17;;;;;;;6.07;2.17;;;;;;;;;;5114891;28;20067;-68
2021/06/12 08:35:42;;;;;;;6.68;2.25;;;;;;;;;;5110515;28;20240;-68
2021/06/12 08:38:08;;;;;;;11.60;2.33;;;;;;;;;;5103707;28;20380;-68
2021/06/12 08:40:33;;;;;;;7.03;2.75;;;;;;;;;;5104845;28;20059;-68
2021/06/12 08:42:59;;;;;;;8.55;2.13;;;;;;;;;;5102114;28;20035;-67
2021/06/12 08:45:28;;;;;;;5.18;2.38;;;;;;;;;;5105343;28;20081;-67
2021/06/12 08:47:54;;;;;;;6.53;1.85;;;;;;;;;;5102839;28;20073;-68
2021/06/12 08:50:19;;;;;;;7.38;2.65;;;;;;;;;;5103615;28;20024;-66
2021/06/12 08:52:45;;;;;;;6.78;2.20;;;;;;;;;;5105635;28;20016;-67
2021/06/12 08:55:11;;;;;;;7.22;1.75;;;;;;;;;;5105783;28;20035;-67
2021/06/12 08:57:37;;;;;;;5.28;1.42;;;;;;;;;;5104623;28;20069;-68
2021/06/12 09:00:03;;;;;;;5.75;1.50;;;;;;;;;;5101931;28;20451;-67
2021/06/12 09:02:29;;;;;;;7.95;2.13;;;;;;;;;;5104715;28;20034;-68
2021/06/12 09:04:54;;;;;;;7.20;2.35;;;;;;;;;;5107052;28;20024;-66
2021/06/12 09:07:21;;;;;;;14.68;2.95;;;;;;;;;;5106867;28;20019;-67
2021/06/12 09:09:53;;;;;;;8.30;2.10;;;;;;;;;;5093752;28;20109;-67
2021/06/12 09:12:19;;;;;;;7.40;2.45;;;;;;;;;;5110498;28;20058;-67
2021/06/12 09:15:04;;;;;;;3.78;2.15;;;;;;;;;;5112710;28;20448;-67
2021/06/12 09:17:39;;;;;;;6.53;2.20;;;;;;;;;;5113236;28;20421;-68
2021/06/12 09:20:04;;;;;;;8.45;1.88;;;;;;;;;;5107087;28;20028;-67
2021/06/12 09:22:30;;;;;;;6.43;2.10;;;;;;;;;;5099107;28;20031;-69
2021/06/12 09:24:55;;;;;;;6.18;1.85;;;;;;;;;;5103104;28;20080;-68
2021/06/12 09:27:20;;;;;;;5.95;1.73;;;;;;;;;;5099941;28;20087;-68
2021/06/12 09:29:47;;;;;;;6.03;2.40;;;;;;;;;;5100931;28;20372;-67
2021/06/12 09:32:16;;;;;;;5.82;1.85;;;;;;;;;;5101469;28;20261;-68
2021/06/12 09:34:43;;;;;;;5.05;1.55;;;;;;;;;;5105619;28;20411;-68
2021/06/12 09:37:16;;;;;;;4.97;1.90;;;;;;;;;;5104036;28;20019;-66
2021/06/12 09:39:41;;;;;;;6.20;1.95;;;;;;;;;;5103652;28;20036;-67
2021/06/12 09:42:07;;;;;;;6.47;1.80;;;;;;;;;;5092167;28;20080;-67
2021/06/12 09:44:37;;;;;;;8.80;2.28;;;;;;;;;;5113616;28;20088;-67
2021/06/12 09:47:03;;;;;;;9.25;2.42;;;;;;;;;;5112808;28;20051;-67
2021/06/12 09:49:34;;;;;;;5.80;1.90;;;;;;;;;;5113334;28;20376;-66
2021/06/12 09:52:02;;;;;;;5.80;2.65;;;;;;;;;;5112517;28;20024;-66
2021/06/12 09:54:34;;;;;;;5.55;1.85;;;;;;;;;;5112507;28;20039;-67
2021/06/12 09:56:59;;;;;;;6.15;1.75;;;;;;;;;;5112347;28;20039;-67
2021/06/12 09:59:25;;;;;;;8.57;2.25;;;;;;;;;;5112693;28;20031;-66
2021/06/12 10:01:50;;;;;;;6.35;2.38;;;;;;;;;;5112001;28;20316;-66
2021/06/12 10:04:16;;;;;;;6.30;1.83;;;;;;;;;;5112554;28;20032;-67
2021/06/12 10:06:42;;;;;;;6.07;2.53;;;;;;;;;;5111747;28;20038;-67
2021/06/12 10:09:07;;;;;;;8.07;2.10;;;;;;;;;;5110641;28;20023;-67
2021/06/12 10:11:35;;;;;;;5.78;2.20;;;;;;;;;;5111232;28;20044;-67
2021/06/12 10:14:00;;;;;;;6.75;2.00;;;;;;;;;;5099691;28;20391;-67
2021/06/12 10:16:26;;;;;;;5.13;1.98;;;;;;;;;;5102103;28;20020;-68
2021/06/12 10:18:52;;;;;;;6.55;2.20;;;;;;;;;;5109826;28;20027;-67
2021/06/12 10:21:17;;;;;;;5.03;1.75;;;;;;;;;;5100630;28;20036;-68
2021/06/12 10:23:44;;;;;;;5.38;1.88;;;;;;;;;;5107502;28;20020;-67
2021/06/12 10:26:11;;;;;;;5.28;1.98;;;;;;;;;;5104614;28;20026;-68
2021/06/12 10:28:36;;;;;;;4.60;2.17;;;;;;;;;;5108764;28;20032;-68
2021/06/12 10:31:05;;;;;;;3.90;1.73;;;;;;;;;;5111543;28;20095;-70
2021/06/12 10:33:33;;;;;;;8.88;2.30;;;;;;;;;;5096019;28;20032;-70
2021/06/12 10:36:16;;;;;;;5.25;2.13;;;;;;;;;;5105346;28;20125;-69
2021/06/12 10:38:42;;;;;;;5.05;2.33;;;;;;;;;;5092251;28;20028;-69
2021/06/12 10:41:13;;;;;;;6.22;1.80;;;;;;;;;;5100485;28;20038;-69
2021/06/12 10:43:39;;;;;;;8.70;2.40;;;;;;;;;;5092355;28;20023;-69
2021/06/12 10:46:04;;;;;;;7.88;1.75;;;;;;;;;;5093082;28;20032;-70
2021/06/12 10:48:41;;;;;;;6.07;2.00;;;;;;;;;;5100700;28;20388;-69
2021/06/12 10:51:08;;;;;;;5.68;2.28;;;;;;;;;;5101625;28;20080;-69
2021/06/12 10:53:34;;;;;;;8.60;1.90;;;;;;;;;;5096752;28;20510;-69
2021/06/12 10:56:00;;;;;;;8.10;2.72;;;;;;;;;;5100106;28;20016;-69
2021/06/12 10:58:29;;;;;;;7.97;2.08;;;;;;;;;;5104807;28;20551;-69
2021/06/12 11:01:11;;;;;;;11.88;2.78;;;;;;;;;;5114528;28;20039;-69
2021/06/12 11:07:22;;;;;;;6.10;1.90;;;;;;;;;;5116548;28;20035;-69
2021/06/12 11:09:20;;;;;;;8.25;2.45;;;;;;;;;;5097182;28;20389;-69
2021/06/12 11:11:48;;;;;;;5.22;1.90;;;;;;;;;;5113274;28;20056;-68
2021/06/12 11:14:20;;;;;;;8.80;2.28;;;;;;;;;;5111664;28;20040;-68
2021/06/12 11:17:04;;;;;;;6.18;1.80;;;;;;;;;;5112356;28;20031;-68
2021/06/12 11:19:30;;;;;;;6.95;2.10;;;;;;;;;;5115848;28;20031;-69
2021/06/12 11:22:14;;;;;;;7.30;2.50;;;;;;;;;;5115296;28;20416;-68
2021/06/12 11:24:39;;;;;;;5.75;2.42;;;;;;;;;;5116352;28;20024;-69
2021/06/12 11:27:05;;;;;;;14.07;3.05;;;;;;;;;;5115653;28;20110;-70
2021/06/12 11:29:30;;;;;;;18.38;6.25;;;;;;;;;;5116035;28;20028;-69
2021/06/12 11:31:55;;;;;;;8.45;4.55;;;;;;;;;;5116038;28;20384;-68
2021/06/12 11:34:22;;;;;;;12.45;5.50;;;;;;;;;;5115833;28;20421;-69
2021/06/12 11:36:50;;;;;;;14.48;5.82;;;;;;;;;;5116077;28;20073;-68
2021/06/12 11:39:15;;;;;;;16.05;5.82;;;;;;;;;;5077229;28;20131;-68
2021/06/12 11:41:41;;;;;;;15.50;5.60;;;;;;;;;;5095914;28;20504;-69
2021/06/12 11:44:07;;;;;;;11.05;5.53;;;;;;;;;;5113834;28;20422;-68
2021/06/12 11:46:34;;;;;;;13.13;5.97;;;;;;;;;;5115648;28;20032;-69
2021/06/12 11:49:03;;;;;;;14.30;5.15;;;;;;;;;;5115408;28;20016;-70
2021/06/12 11:51:32;;;;;;;10.63;5.32;;;;;;;;;;5115150;28;20027;-69
2021/06/12 11:54:14;;;;;;;13.48;5.50;;;;;;;;;;5114867;28;20040;-68
2021/06/12 11:56:43;;;;;;;14.60;5.93;;;;;;;;;;5108476;28;20024;-68
2021/06/12 11:59:09;;;;;;;12.65;6.28;;;;;;;;;;5094699;28;20413;-68
2021/06/12 12:01:48;;;;;;;14.27;7.05;;;;;;;;;;5093928;28;20031;-68
2021/06/12 12:04:17;;;;;;;16.85;7.15;;;;;;;;;;5095396;28;20036;-69
2021/06/12 12:06:49;;;;;;;17.05;7.10;;;;;;;;;;5095285;28;20072;-68
2021/06/12 12:09:23;;;;;;;13.98;6.28;;;;;;;;;;5095134;28;20028;-68
2021/06/12 12:11:52;;;;;;;13.65;6.10;;;;;;;;;;5094013;28;20051;-68
2021/06/12 12:14:24;;;;;;;16.13;6.38;;;;;;;;;;5094874;28;20493;-68
2021/06/12 12:16:50;;;;;;;12.80;6.35;;;;;;;;;;5113825;28;20110;-69
2021/06/12 12:19:15;;;;;;;11.45;6.22;;;;;;;;;;5115107;28;20051;-68
2021/06/12 12:21:44;;;;;;;13.25;6.93;;;;;;;;;;5115480;28;20106;-69
2021/06/12 12:24:11;;;;;;;14.02;6.65;;;;;;;;;;5115160;28;20043;-68
2021/06/12 12:26:37;;;;;;;15.63;6.70;;;;;;;;;;5115558;28;20069;-69
2021/06/12 12:29:14;;;;;;;11.07;5.32;;;;;;;;;;5114651;28;20550;-69
2021/06/12 12:31:42;;;;;;;14.05;5.60;;;;;;;;;;5115013;28;20043;-68
2021/06/12 12:34:08;;;;;;;15.07;5.43;;;;;;;;;;5114882;28;20045;-68
2021/06/12 12:36:41;;;;;;;12.60;5.75;;;;;;;;;;5115086;28;20446;-68
2021/06/12 12:39:06;;;;;;;11.75;5.47;;;;;;;;;;5114837;28;20027;-69
2021/06/12 12:41:31;;;;;;;12.98;5.40;;;;;;;;;;5114977;28;20027;-68
2021/06/12 12:44:23;;;;;;;15.52;5.47;;;;;;;;;;5114462;28;20032;-69
2021/06/12 12:46:50;;;;;;;11.05;4.88;;;;;;;;;;5109779;28;20035;-69
2021/06/12 12:49:25;;;;;;;15.30;5.45;;;;;;;;;;5114715;28;20032;-69
2021/06/12 12:51:56;;;;;;;16.65;5.68;;;;;;;;;;5114545;28;20032;-68
2021/06/12 12:54:23;;;;;;;14.18;6.60;;;;;;;;;;5114473;28;20040;-68
2021/06/12 12:56:52;;;;;;;21.95;6.80;;;;;;;;;;5114655;28;20030;-69
2021/06/12 12:59:31;;;;;;;13.65;6.50;;;;;;;;;;5114498;28;20034;-69
2021/06/12 13:01:57;;;;;;;12.23;6.50;;;;;;;;;;5114583;28;20031;-68
2021/06/12 13:04:30;;;;;;;19.20;7.28;;;;;;;;;;5114369;28;20043;-68
2021/06/12 13:07:14;;;;;;;12.73;6.82;;;;;;;;;;5114476;28;20361;-69
2021/06/12 13:09:40;;;;;;;17.08;6.90;;;;;;;;;;5114283;28;20051;-69
2021/06/12 13:12:09;;;;;;;15.95;7.30;;;;;;;;;;5113874;28;20475;-68
2021/06/12 13:14:36;;;;;;;15.07;7.00;;;;;;;;;;5114089;28;20028;-69
2021/06/12 13:17:07;;;;;;;19.13;6.97;;;;;;;;;;5093992;28;20024;-69
2021/06/12 13:19:51;;;;;;;14.85;6.97;;;;;;;;;;5093514;28;20484;-69
2021/06/12 13:22:35;;;;;;;15.43;7.10;;;;;;;;;;5093372;28;20095;-69
2021/06/12 13:25:06;;;;;;;16.42;7.75;;;;;;;;;;5093480;28;20380;-68
2021/06/12 13:27:36;;;;;;;16.15;7.80;;;;;;;;;;5093236;28;20028;-69
2021/06/12 13:30:02;;;;;;;14.13;7.60;;;;;;;;;;5093685;28;20451;-69
2021/06/12 13:32:28;;;;;;;15.07;7.25;;;;;;;;;;5093161;28;20476;-68
2021/06/12 13:34:54;;;;;;;16.10;7.20;;;;;;;;;;5093268;28;20051;-68
2021/06/12 13:37:19;;;;;;;14.77;7.53;;;;;;;;;;5093565;28;20098;-68
2021/06/12 13:39:49;;;;;;;16.13;8.02;;;;;;;;;;5093291;28;20018;-68
2021/06/12 13:42:15;;;;;;;15.93;7.15;;;;;;;;;;5092370;28;20029;-66
2021/06/12 13:44:59;;;;;;;18.88;7.82;;;;;;;;;;5093106;28;20085;-68
2021/06/12 13:47:24;;;;;;;16.67;7.53;;;;;;;;;;5093232;28;20042;-68
2021/06/12 13:49:50;;;;;;;15.18;7.32;;;;;;;;;;5093051;28;20032;-68
2021/06/12 13:52:15;;;;;;;20.50;8.80;;;;;;;;;;5093830;28;20012;-68
2021/06/12 13:54:40;;;;;;;18.17;8.40;;;;;;;;;;5093251;28;20388;-69
2021/06/12 13:57:06;;;;;;;15.60;7.82;;;;;;;;;;5093439;28;20112;-68
2021/06/12 13:59:31;;;;;;;14.57;7.75;;;;;;;;;;5093176;28;20024;-68
2021/06/12 14:01:56;;;;;;;16.70;8.95;;;;;;;;;;5097794;28;20023;-69
2021/06/12 14:04:22;;;;;;;19.95;9.13;;;;;;;;;;5112533;28;20126;-68
2021/06/12 14:06:47;;;;;;;14.90;7.90;;;;;;;;;;5112031;28;20019;-67
2021/06/12 14:09:12;;;;;;;16.17;8.80;;;;;;;;;;5112401;28;20073;-68
2021/06/12 14:11:38;;;;;;;18.35;8.00;;;;;;;;;;5112956;28;20510;-68
2021/06/12 14:14:04;;;;;;;25.08;9.00;;;;;;;;;;5112582;28;20035;-68
2021/06/12 14:16:29;;;;;;;19.98;8.63;;;;;;;;;;5111329;28;20032;-67
2021/06/12 14:18:54;;;;;;;20.88;8.55;;;;;;;;;;5111766;28;20049;-68
2021/06/12 14:21:22;;;;;;;20.02;8.90;;;;;;;;;;5112936;28;20024;-67
2021/06/12 14:23:47;;;;;;;19.48;9.23;;;;;;;;;;5091643;28;20040;-67
2021/06/12 14:26:13;;;;;;;20.05;8.38;;;;;;;;;;5092389;28;20088;-68
2021/06/12 14:28:39;;;;;;;21.38;8.25;;;;;;;;;;5091789;28;20028;-67
2021/06/12 14:31:05;;;;;;;22.38;8.40;;;;;;;;;;5091975;28;20405;-68